Terminal Aerodrome Forecast
Issued by NWS

Home | Current Version | Previous Version | Graphics & Text | Print | Product List | Glossary On
Versions: 1 2 3 4 5 6 7 8 9 10 11 12 13 14 15
000
FTUS43 KBIS 240858 AAB
TAFMOT
TAF AMD
KMOT 240858Z 2409/2506 33006KT P6SM SCT100
      TEMPO 2410/2414 3SM BR SCT015
     FM241400 03006KT P6SM SCT015
     FM241800 06005KT P6SM SCT030
     FM242200 10006KT P6SM SCT030
     FM250500 13008KT P6SM SCT100=

USA.gov is the U.S. government's official web portal to all federal, state and local government web resources and services.